Aeroporto :
LOGIN :

Iscrizione | Disclaimer

   EN    FR    IT 

 










Sommario :    VFR   VFR Marginale   IFR   IFR Intensivo   IFR Molto Intensivo
Visibilità : 
Base nubi : 
>= 8 km
>= 3000ft
5 / 8 km
1000 / 3000 ft
1500m / 5 km
500 / 1000 ft
800 / 1500m
200 / 500 ft
< 800m
< 200 ft
Simboli :   Temporali  Nebbia  Neve Forte  Precipitazioni Forti  Vento > 20 kt
SIGMETs :   Varie  Temporali  Ghiacco  Turbolenza  Onda orograficha  Ceneri Vulcaniche






- Altitudine del aeroporto : 78 ft
- Codice IATA : LED


ULLI - Pulkovo

ULTIMO METAR :
  • 021300Z 21005MPS 140V290 9999 -SHRA FEW011 BKN016CB OVC038 05/03 Q0990 R28L/290050 NOSIG

METARs OBSOLETI :
  • 021230Z 21005MPS 160V250 9999 -SHRA FEW011 BKN017CB OVC036 05/03 Q0990 R28L/290050 NOSIG
  • 021200Z 21005MPS 160V260 9999 -SHRA FEW011 BKN017CB OVC036 05/03 Q0990 R28L/290050 NOSIG
  • 021130Z 20004G09MPS 120V270 9999 FEW011 BKN017CB OVC036 05/03 Q0990 R28L/290050 NOSIG
  • 021100Z 21004G09MPS 140V280 9999 -SHRA FEW012 BKN017CB OVC036 04/03 Q0991 R28L/290050 NOSIG
  • 021030Z 20004G09MPS 130V250 9999 -SHRA FEW011 BKN019CB BKN036 04/03 Q0991 R28L/290050 NOSIG

TAF TAF ULLI
Valido dal 02 a 12 ore il 03 a 12 ore UTC


021055Z 0212/0312 21007G13MPS 6000 SCT011 BKN020
TEMPO 0212/0220 20009G15MPS 4000 -SHRA SCT010 BKN017CB
BECMG 0220/0221 22008G14MPS
TEMPO 0221/0307 23010G17MPS 3100 -SHRA SCT011 BKN015CB
BECMG 0307/0308 23010G16MPS
TEMPO 0308/0312 24013G21MPS 3100 -SHRASN BKN011 BKN020CB



MetMap, La meteo Aeronautica in un colpo d'occhio ! - Copyright ORBIFLY Dicembre 2007 - Disclaimer

ORBIFLY MET'MAP TEAM :

Programmazione e sviluppo : Alexandra Zaïnal
Concezione : Baudouin d'Aumeries
Aiuto per la programmazione : Marc-Olivier Méhu
Supporto tecnico e logistico : Manuel Goepfert
Aiuto per la traduzione : Arnaldo La Scala

Contatto : metmap@orbifly.com




FONTI E CREDITI :

   NOAA